Weather


ICAO METAR
KAPA KAPA 200253Z 12006KT 10SM FEW140 FEW220 M02/M07 A3015 RMK AO2 SLP258 T10171072 53013
KASE KASE 200253Z AUTO 00000KT 10SM OVC038 M02/M07 A3036 RMK AO2 SLP307 T10221072 53009 $
KBJC KBJC 200258Z 30016G24KT 60SM SCT120 SCT200 05/M06 A3015
KBKF KBKF 200258Z 23004KT 10SM FEW090 FEW120 SCT220 01/M07 A3015 RMK AO2A SLP232 T00101068 53014
KCOS KCOS 200254Z 06003KT 10SM SCT250 M03/M08 A3016 RMK AO2 SLP259 T10331083 55000
KCPR KCPR 200253Z 21025G36KT 10SM CLR 01/M05 A3009 RMK AO2 PK WND 21036/0246 SLP212 T00111050 58001
KCYS KCYS 200253Z 28018KT 10SM CLR 03/M06 A3013 RMK AO2 PK WND 28029/0228 SLP222 T00281061 51009
KDEN KDEN 200253Z 24007KT 10SM FEW250 02/M05 A3013 RMK AO2 SLP218 T00221050 53012
KEGE KEGE 200256Z AUTO 17004KT 10SM OVC048 M01/M05 A3040 RMK AO2 SLP370 T10061050 53009 FZRANO
KFCS KFCS 200258Z AUTO 02003KT 10SM CLR M04/M09 A3015 RMK AO2 SLP280 T10391093 53001 $
KFMN KFMN 200253Z 23003KT 10SM CLR 01/M06 A3034 RMK AO2 SLP304 T00111061 53007
KFTG KFTG 200336Z AUTO 24008KT 10SM CLR 03/M05 A3014 RMK AO2 T00281050
KGCC KGCC 200253Z AUTO 22013KT 10SM SCT080 04/M04 A2996 RMK AO2 SLP169 T00391039 58008
KGJT KGJT 200253Z 00000KT 10SM CLR M01/M03 A3039 RMK AO2 SLP315 T10061028 53005
KPUB KPUB 200253Z 04005KT 10SM CLR M03/M06 A3015 RMK AO2 SLP244 T10281061 51003
KRAP KRAP 200252Z 13003KT 10SM CLR M06/M08 A2997 RMK AO2 SLP206 T10561078 58014
KRCA KRCA 200256Z AUTO 00000KT 10SM CLR M05/M05 A2996 RMK AO2 SLP202 T10511051 58015 FZRANO $

Surface Data
Click here.

This is a composite map contain the following analyses: radar summary (color filled areas), surface data plot (composite station model), frontal locations (in various bold lines) and pressure contours (in thin blue lines).